createdAt,value
2022-09-29T00:01:07.442Z,99803.34
2022-09-29T00:03:36.559Z,99806.97
2022-09-29T00:06:03.807Z,99812.25
2022-09-29T00:08:31.611Z,99803.00
2022-09-29T00:10:58.828Z,99803.00
2022-09-29T00:13:26.114Z,99805.78
2022-09-29T00:16:00.121Z,99806.03
2022-09-29T00:18:29.386Z,99808.81
2022-09-29T00:21:17.251Z,99805.50
2022-09-29T00:23:48.806Z,99808.44
2022-09-29T00:26:19.356Z,99807.78
2022-09-29T00:28:57.822Z,99807.03
2022-09-29T00:31:29.225Z,99799.38
2022-09-29T00:33:57.681Z,99806.41
2022-09-29T00:36:29.986Z,99803.97
2022-09-29T00:38:58.346Z,99808.41
2022-09-29T00:41:43.620Z,99805.22
2022-09-29T00:44:13.691Z,99799.25
2022-09-29T00:46:48.343Z,99798.56
2022-09-29T00:49:19.692Z,99791.00
2022-09-29T00:51:59.811Z,99798.06
2022-09-29T00:54:32.668Z,99797.34
2022-09-29T00:57:02.929Z,99803.50
2022-09-29T00:59:50.329Z,99790.72
2022-09-29T01:02:19.682Z,99800.91
2022-09-29T01:04:52.014Z,99796.44
2022-09-29T01:07:24.541Z,99795.53
2022-09-29T01:09:55.306Z,99802.41
2022-09-29T01:12:23.985Z,99791.09
2022-09-29T01:14:54.335Z,99784.28
2022-09-29T01:17:23.245Z,99784.19
2022-09-29T01:20:17.161Z,99793.69
2022-09-29T01:23:36.142Z,99791.91
2022-09-29T01:26:33.908Z,99790.94
2022-09-29T01:29:47.094Z,99797.03
2022-09-29T01:32:40.970Z,99793.53
2022-09-29T01:35:27.804Z,99797.03
2022-09-29T01:38:38.080Z,99799.72
2022-09-29T01:41:44.121Z,99795.69
2022-09-29T01:44:28.952Z,99796.69
2022-09-29T01:47:34.765Z,99791.69
2022-09-29T01:50:13.477Z,99798.81
2022-09-29T01:52:55.689Z,99798.91
2022-09-29T01:55:28.875Z,99797.28
2022-09-29T01:58:17.267Z,99800.72
2022-09-29T02:00:51.746Z,99798.03
2022-09-29T02:03:35.425Z,99799.81
2022-09-29T02:06:13.336Z,99800.72
2022-09-29T02:09:02.233Z,99806.06
2022-09-29T02:11:34.027Z,99806.22
2022-09-29T02:14:18.597Z,99808.06
2022-09-29T02:17:01.823Z,99806.44
2022-09-29T02:19:34.336Z,99803.03
2022-09-29T02:22:01.505Z,99803.94
2022-09-29T02:24:28.627Z,99800.56
2022-09-29T02:26:58.549Z,99808.44
2022-09-29T02:29:28.472Z,99809.34
2022-09-29T02:32:01.853Z,99806.75
2022-09-29T02:34:34.304Z,99807.63
2022-09-29T02:37:38.504Z,99808.59
2022-09-29T02:40:48.731Z,99809.59
2022-09-29T02:43:55.540Z,99813.28
2022-09-29T02:46:51.928Z,99807.22
2022-09-29T02:49:43.839Z,99815.09
2022-09-29T02:52:31.753Z,99811.66
2022-09-29T02:55:28.734Z,99811.66
2022-09-29T02:58:10.536Z,99807.38
2022-09-29T03:00:38.791Z,99810.84
2022-09-29T03:03:05.937Z,99809.97
2022-09-29T03:05:33.664Z,99809.06
2022-09-29T03:08:01.023Z,99810.84
2022-09-29T03:10:30.385Z,99804.78
2022-09-29T03:12:57.642Z,99813.50
2022-09-29T03:15:24.744Z,99808.38
2022-09-29T03:17:57.102Z,99805.94
2022-09-29T03:20:24.512Z,99798.22
2022-09-29T03:22:56.123Z,99805.88
2022-09-29T03:25:26.106Z,99802.41
2022-09-29T03:27:53.293Z,99803.34
2022-09-29T03:30:20.431Z,99806.00
2022-09-29T03:32:47.684Z,99800.91
2022-09-29T03:35:15.197Z,99801.88
2022-09-29T03:37:43.005Z,99806.25
2022-09-29T03:40:10.798Z,99797.59
2022-09-29T03:42:38.112Z,99805.44
2022-09-29T03:45:06.099Z,99799.50
2022-09-29T03:47:33.388Z,99809.97
2022-09-29T03:50:00.547Z,99802.31
2022-09-29T03:52:27.670Z,99805.97
2022-09-29T03:54:54.766Z,99804.53
2022-09-29T03:57:21.889Z,99808.19
2022-09-29T03:59:49.681Z,99809.97
2022-09-29T04:02:18.382Z,99813.47
2022-09-29T04:04:48.845Z,99816.91
2022-09-29T04:07:15.999Z,99815.28
2022-09-29T04:09:43.325Z,99818.72
2022-09-29T04:12:10.560Z,99817.81
2022-09-29T04:14:37.693Z,99821.31
2022-09-29T04:17:04.854Z,99828.34
2022-09-29T04:19:32.003Z,99819.72
2022-09-29T04:21:59.149Z,99828.44
2022-09-29T04:24:26.385Z,99830.25
2022-09-29T04:26:53.489Z,99843.31
2022-09-29T04:29:20.778Z,99842.53
2022-09-29T04:31:48.422Z,99839.25
2022-09-29T04:34:18.707Z,99837.56
2022-09-29T04:36:46.230Z,99838.56
2022-09-29T04:39:16.191Z,99839.53
2022-09-29T04:41:46.273Z,99844.81
2022-09-29T04:44:15.685Z,99837.16
2022-09-29T04:46:42.818Z,99837.28
2022-09-29T04:49:09.931Z,99845.91
2022-09-29T04:51:37.298Z,99844.25
2022-09-29T04:54:04.730Z,99852.03
2022-09-29T04:56:31.838Z,99845.00
2022-09-29T04:58:59.186Z,99851.09
2022-09-29T05:01:27.386Z,99846.84
2022-09-29T05:03:54.668Z,99848.50
2022-09-29T05:06:21.982Z,99853.72
2022-09-29T05:08:49.595Z,99855.47
2022-09-29T05:11:16.723Z,99852.03
2022-09-29T05:13:44.002Z,99846.94
2022-09-29T05:16:11.198Z,99858.06
2022-09-29T05:18:38.367Z,99861.72
2022-09-29T05:21:26.930Z,99864.31
2022-09-29T05:23:55.680Z,99867.75
2022-09-29T05:26:23.112Z,99866.81
2022-09-29T05:28:50.292Z,99867.75
2022-09-29T05:31:18.130Z,99875.63
2022-09-29T05:33:45.504Z,99879.03
2022-09-29T05:36:13.626Z,99887.66
2022-09-29T05:38:40.891Z,99884.31
2022-09-29T05:41:12.282Z,99886.06
2022-09-29T05:43:40.735Z,99890.41
2022-09-29T05:46:10.758Z,99892.31
2022-09-29T05:48:38.403Z,99892.38
2022-09-29T05:51:22.438Z,99901.00
2022-09-29T05:53:51.662Z,99903.50
2022-09-29T05:56:25.509Z,99901.72
2022-09-29T05:58:53.664Z,99903.38
2022-09-29T06:01:24.547Z,99902.47
2022-09-29T06:03:56.948Z,99911.97
2022-09-29T06:06:27.749Z,99897.34
2022-09-29T06:08:57.569Z,99905.91
2022-09-29T06:11:33.462Z,99909.28
2022-09-29T06:14:02.677Z,99906.63
2022-09-29T06:16:49.964Z,99910.75
2022-09-29T06:19:20.401Z,99915.03
2022-09-29T06:21:50.290Z,99914.84
2022-09-29T06:24:17.917Z,99913.78
2022-09-29T06:26:45.171Z,99920.50
2022-09-29T06:29:12.265Z,99925.50
2022-09-29T06:31:39.500Z,99921.78
2022-09-29T06:34:06.838Z,99923.34
2022-09-29T06:36:57.490Z,99927.38
2022-09-29T06:39:24.772Z,99928.88
2022-09-29T06:41:56.265Z,99929.47
2022-09-29T06:44:27.809Z,99926.59
2022-09-29T06:46:55.801Z,99928.13
2022-09-29T06:49:24.106Z,99933.88
2022-09-29T06:51:52.037Z,99939.53
2022-09-29T06:54:26.304Z,99943.53
2022-09-29T06:56:55.219Z,99938.81
2022-09-29T06:59:22.689Z,99950.53
2022-09-29T07:01:51.055Z,99945.94
2022-09-29T07:04:21.113Z,99946.44
2022-09-29T07:06:49.535Z,99950.50
2022-09-29T07:09:17.721Z,99956.41
2022-09-29T07:11:49.898Z,99952.78
2022-09-29T07:14:19.879Z,99962.22
2022-09-29T07:16:48.443Z,99955.09
2022-09-29T07:19:18.273Z,99961.81
2022-09-29T07:21:47.147Z,99964.34
2022-09-29T07:24:14.899Z,99970.38
2022-09-29T07:26:42.334Z,99973.63
2022-09-29T07:29:15.077Z,99970.88
2022-09-29T07:31:51.305Z,99972.59
2022-09-29T07:34:21.553Z,99977.66
2022-09-29T07:36:49.613Z,99974.97
2022-09-29T07:39:17.620Z,99974.00
2022-09-29T07:41:44.958Z,99976.50
2022-09-29T07:44:12.102Z,99978.88
2022-09-29T07:46:39.285Z,99976.13
2022-09-29T07:49:06.704Z,99984.69
2022-09-29T07:51:33.764Z,99983.69
2022-09-29T07:54:05.183Z,99991.34
2022-09-29T07:56:33.220Z,99991.19
2022-09-29T07:59:02.447Z,99981.47
2022-09-29T08:01:30.091Z,99994.25
2022-09-29T08:03:57.561Z,99991.47
2022-09-29T08:06:26.711Z,99993.00
2022-09-29T08:09:03.460Z,100001.41
2022-09-29T08:11:36.852Z,99996.81
2022-09-29T08:14:04.269Z,100008.69
2022-09-29T08:16:32.521Z,100001.22
2022-09-29T08:19:01.338Z,100005.28
2022-09-29T08:21:30.154Z,100010.25
2022-09-29T08:23:57.516Z,100010.81
2022-09-29T08:26:37.154Z,100011.44
2022-09-29T08:29:09.100Z,100018.06
2022-09-29T08:31:38.457Z,100018.63
2022-09-29T08:34:07.089Z,100021.81
2022-09-29T08:36:34.370Z,100017.78
2022-09-29T08:39:01.557Z,100026.94
2022-09-29T08:41:59.577Z,100027.13
2022-09-29T08:45:04.811Z,100035.34
2022-09-29T08:47:47.658Z,100037.63
2022-09-29T08:50:41.000Z,100038.94
2022-09-29T08:53:23.966Z,100037.69
2022-09-29T08:56:05.110Z,100042.47
2022-09-29T08:58:33.883Z,100043.84
2022-09-29T09:01:40.754Z,100046.09
2022-09-29T09:04:35.750Z,100046.56
2022-09-29T09:07:51.461Z,100051.44
2022-09-29T09:10:31.170Z,100055.31
2022-09-29T09:13:30.552Z,100049.84
2022-09-29T09:16:54.260Z,100052.75
2022-09-29T09:19:36.568Z,100061.75
2022-09-29T09:22:24.831Z,100057.94
2022-09-29T09:25:24.988Z,100057.66
2022-09-29T09:28:20.406Z,100071.88
2022-09-29T09:31:06.627Z,100065.44
2022-09-29T09:34:00.803Z,100059.94
2022-09-29T09:37:03.811Z,100067.06
2022-09-29T09:39:37.442Z,100056.88
2022-09-29T09:42:16.028Z,100063.19
2022-09-29T09:45:00.893Z,100066.31
2022-09-29T09:47:53.347Z,100069.28
2022-09-29T09:50:25.334Z,100070.59
2022-09-29T09:52:56.399Z,100072.81
2022-09-29T09:55:30.281Z,100075.78
2022-09-29T09:58:00.402Z,100071.00
2022-09-29T10:00:52.314Z,100073.91
2022-09-29T10:03:19.721Z,100073.31
2022-09-29T10:05:49.143Z,100071.25
2022-09-29T10:08:23.110Z,100074.31
2022-09-29T10:10:58.064Z,100087.56
2022-09-29T10:13:30.485Z,100082.56
2022-09-29T10:16:23.993Z,100085.44
2022-09-29T10:18:55.105Z,100080.47
2022-09-29T10:21:44.228Z,100084.34
2022-09-29T10:24:30.973Z,100090.78
2022-09-29T10:27:01.726Z,100081.69
2022-09-29T10:29:49.427Z,100076.97
2022-09-29T10:32:36.641Z,100096.66
2022-09-29T10:35:26.569Z,100093.75
2022-09-29T10:38:05.350Z,100092.09
2022-09-29T10:40:32.656Z,100096.72
2022-09-29T10:43:23.825Z,100092.59
2022-09-29T10:45:51.035Z,100096.34
2022-09-29T10:48:19.014Z,100101.69
2022-09-29T10:51:04.161Z,100100.31
2022-09-29T10:53:38.715Z,100099.56
2022-09-29T10:56:22.441Z,100098.44
2022-09-29T10:59:01.827Z,100102.81
2022-09-29T11:01:44.478Z,100103.31
2022-09-29T11:04:39.939Z,100105.69
2022-09-29T11:07:12.379Z,100100.59
2022-09-29T11:09:43.546Z,100100.13
2022-09-29T11:12:32.040Z,100100.47
2022-09-29T11:15:39.153Z,100107.63
2022-09-29T11:18:39.532Z,100103.19
2022-09-29T11:21:21.714Z,100110.72
2022-09-29T11:24:03.649Z,100115.13
2022-09-29T11:26:55.909Z,100107.00
2022-09-29T11:29:37.627Z,100101.66
2022-09-29T11:32:43.867Z,100107.50
2022-09-29T11:35:14.015Z,100105.13
2022-09-29T11:37:58.015Z,100106.91
2022-09-29T11:41:11.022Z,100115.66
2022-09-29T11:44:16.259Z,100111.47
2022-09-29T11:46:58.209Z,100119.00
2022-09-29T11:49:56.051Z,100117.78
2022-09-29T11:52:56.517Z,100119.09
2022-09-29T11:56:02.336Z,100119.06
2022-09-29T11:58:52.881Z,100126.31
2022-09-29T12:01:59.895Z,100122.09
2022-09-29T12:05:01.195Z,100122.47
2022-09-29T12:08:08.604Z,100130.19
2022-09-29T12:11:41.972Z,100125.16
2022-09-29T12:14:30.052Z,100133.34
2022-09-29T12:17:04.577Z,100121.16
2022-09-29T12:19:39.833Z,100120.94
2022-09-29T12:22:14.909Z,100120.94
2022-09-29T12:24:54.387Z,100117.47
2022-09-29T12:27:34.798Z,100121.66
2022-09-29T12:30:29.731Z,100125.72
2022-09-29T12:33:19.254Z,100120.91
2022-09-29T12:36:36.857Z,100125.44
2022-09-29T12:39:34.232Z,100120.75
2022-09-29T12:43:03.500Z,100119.97
2022-09-29T12:45:54.166Z,100116.16
2022-09-29T12:49:31.052Z,100116.47
2022-09-29T12:51:58.498Z,100112.19
2022-09-29T12:54:34.740Z,100120.09
2022-09-29T12:57:17.856Z,100120.09
2022-09-29T13:00:00.088Z,100110.25
2022-09-29T13:02:52.116Z,100118.97
2022-09-29T13:05:53.316Z,100116.22
2022-09-29T13:08:48.253Z,100107.47
2022-09-29T13:11:21.529Z,100116.81
2022-09-29T13:13:54.453Z,100115.69
2022-09-29T13:16:56.722Z,100113.41
2022-09-29T13:19:58.722Z,100123.44
2022-09-29T13:23:11.590Z,100118.59
2022-09-29T13:25:56.705Z,100115.56
2022-09-29T13:28:38.974Z,100130.75
2022-09-29T13:31:14.163Z,100125.78
2022-09-29T13:33:46.851Z,100129.69
2022-09-29T13:36:25.815Z,100129.59
2022-09-29T13:39:00.025Z,100133.28
2022-09-29T13:41:30.133Z,100135.72
2022-09-29T13:43:57.169Z,100138.88
2022-09-29T13:46:30.158Z,100135.44
2022-09-29T13:49:09.607Z,100144.72
2022-09-29T13:51:50.560Z,100137.19
2022-09-29T13:54:23.839Z,100138.50
2022-09-29T13:57:13.408Z,100141.38
2022-09-29T13:59:44.741Z,100143.53
2022-09-29T14:02:37.033Z,100142.97
2022-09-29T14:05:24.063Z,100141.94
2022-09-29T14:07:57.495Z,100141.31
2022-09-29T14:10:43.351Z,100148.59
2022-09-29T14:13:25.177Z,100150.44
2022-09-29T14:16:21.211Z,100149.63
2022-09-29T14:19:02.753Z,100152.53
2022-09-29T14:21:51.991Z,100156.00
2022-09-29T14:24:37.362Z,100160.44
2022-09-29T14:27:33.031Z,100164.38
2022-09-29T14:30:08.941Z,100160.50
2022-09-29T14:33:02.362Z,100159.59
2022-09-29T14:35:39.555Z,100163.44
2022-09-29T14:38:13.145Z,100165.59
2022-09-29T14:41:13.619Z,100172.06
2022-09-29T14:43:58.566Z,100170.03
2022-09-29T14:46:50.051Z,100186.31
2022-09-29T14:50:12.711Z,100175.47
2022-09-29T14:53:25.272Z,100184.59
2022-09-29T14:56:10.984Z,100177.97
2022-09-29T14:58:47.273Z,100182.38
2022-09-29T15:01:29.231Z,100185.78
2022-09-29T15:04:19.714Z,100191.97
2022-09-29T15:06:50.504Z,100186.94
2022-09-29T15:09:22.325Z,100191.91
2022-09-29T15:11:52.786Z,100193.25
2022-09-29T15:14:28.176Z,100194.03
2022-09-29T15:17:29.346Z,100207.16
2022-09-29T15:20:14.308Z,100200.16
2022-09-29T15:23:08.937Z,100200.78
2022-09-29T15:25:45.004Z,100210.25
2022-09-29T15:28:22.477Z,100209.81
2022-09-29T15:30:54.678Z,100210.13
2022-09-29T15:33:36.683Z,100221.97
2022-09-29T15:36:18.795Z,100224.34
2022-09-29T15:38:46.035Z,100216.56
2022-09-29T15:41:18.937Z,100217.78
2022-09-29T15:44:17.863Z,100218.78
2022-09-29T15:46:51.508Z,100221.16
2022-09-29T15:49:26.506Z,100219.50
2022-09-29T15:52:14.971Z,100225.78
2022-09-29T15:54:47.626Z,100222.69
2022-09-29T15:57:42.981Z,100223.41
2022-09-29T16:00:37.250Z,100222.53
2022-09-29T16:03:37.251Z,100239.13
2022-09-29T16:06:15.134Z,100238.78
2022-09-29T16:08:55.285Z,100246.22
2022-09-29T16:11:31.647Z,100245.97
2022-09-29T16:14:14.495Z,100250.53
2022-09-29T16:16:46.046Z,100250.59
2022-09-29T16:19:28.712Z,100256.25
2022-09-29T16:22:04.986Z,100256.47
2022-09-29T16:24:50.424Z,100267.81
2022-09-29T16:27:57.857Z,100265.31
2022-09-29T16:30:33.398Z,100264.44
2022-09-29T16:33:13.889Z,100273.88
2022-09-29T16:35:54.442Z,100278.03
2022-09-29T16:38:47.665Z,100275.28
2022-09-29T16:41:36.747Z,100278.44
2022-09-29T16:44:18.420Z,100288.56
2022-09-29T16:46:50.817Z,100291.75
2022-09-29T16:49:31.764Z,100294.88
2022-09-29T16:52:15.814Z,100296.03
2022-09-29T16:54:45.838Z,100291.22
2022-09-29T16:57:30.425Z,100289.03
2022-09-29T17:00:07.835Z,100295.47
2022-09-29T17:02:34.989Z,100301.16
2022-09-29T17:05:05.038Z,100309.50
2022-09-29T17:07:38.422Z,100301.94
2022-09-29T17:10:07.445Z,100310.38
2022-09-29T17:12:34.550Z,100309.16
2022-09-29T17:15:01.687Z,100303.47
2022-09-29T17:17:29.195Z,100316.09
2022-09-29T17:19:56.765Z,100314.84
2022-09-29T17:22:29.099Z,100310.88
2022-09-29T17:24:56.894Z,100319.06
2022-09-29T17:27:55.158Z,100318.63
2022-09-29T17:30:25.408Z,100324.41
2022-09-29T17:32:58.937Z,100318.75
2022-09-29T17:35:37.776Z,100322.72
2022-09-29T17:38:09.528Z,100329.25
2022-09-29T17:40:49.907Z,100335.00
2022-09-29T17:43:18.440Z,100345.06
2022-09-29T17:45:46.922Z,100335.91
2022-09-29T17:48:15.270Z,100342.41
2022-09-29T17:50:49.223Z,100342.91
2022-09-29T17:53:18.595Z,100344.19
2022-09-29T17:55:51.876Z,100341.09
2022-09-29T17:58:20.704Z,100349.47
2022-09-29T18:00:51.489Z,100347.25
2022-09-29T18:03:21.269Z,100350.38
2022-09-29T18:05:58.551Z,100344.69
2022-09-29T18:08:29.260Z,100352.22
2022-09-29T18:11:01.791Z,100350.81
2022-09-29T18:13:33.706Z,100357.28
2022-09-29T18:16:02.044Z,100354.94
2022-09-29T18:18:29.392Z,100354.31
2022-09-29T18:20:56.592Z,100360.78
2022-09-29T18:23:24.084Z,100355.91
2022-09-29T18:25:52.643Z,100363.97
2022-09-29T18:28:20.100Z,100366.88
2022-09-29T18:31:01.689Z,100363.63
2022-09-29T18:33:29.020Z,100372.50
2022-09-29T18:35:56.153Z,100363.06
2022-09-29T18:38:23.575Z,100358.84
2022-09-29T18:40:55.705Z,100366.91
2022-09-29T18:43:27.410Z,100373.25
2022-09-29T18:45:56.215Z,100378.81
2022-09-29T18:48:23.732Z,100381.59
2022-09-29T18:50:53.398Z,100385.34
2022-09-29T18:53:22.229Z,100389.16
2022-09-29T18:55:55.917Z,100395.53
2022-09-29T18:58:23.308Z,100402.69
2022-09-29T19:00:55.026Z,100401.19
2022-09-29T19:03:26.349Z,100401.56
2022-09-29T19:05:54.803Z,100414.06
2022-09-29T19:08:22.238Z,100416.84
2022-09-29T19:11:01.104Z,100413.69
2022-09-29T19:13:30.283Z,100412.94
2022-09-29T19:15:59.364Z,100418.34
2022-09-29T19:18:27.251Z,100421.16
2022-09-29T19:20:58.467Z,100433.53
2022-09-29T19:23:26.963Z,100439.81
2022-09-29T19:25:58.519Z,100440.00
2022-09-29T19:28:27.320Z,100438.38
2022-09-29T19:31:04.831Z,100449.84
2022-09-29T19:33:32.094Z,100452.66
2022-09-29T19:36:05.061Z,100451.16
2022-09-29T19:38:32.289Z,100447.94
2022-09-29T19:41:00.067Z,100455.13
2022-09-29T19:43:27.425Z,100460.63
2022-09-29T19:45:54.612Z,100458.34
2022-09-29T19:48:23.283Z,100473.47
2022-09-29T19:51:17.554Z,100480.69
2022-09-29T19:53:47.377Z,100476.59
2022-09-29T19:56:17.995Z,100485.44
2022-09-29T19:58:45.149Z,100472.59
2022-09-29T20:01:12.806Z,100474.47
2022-09-29T20:03:40.292Z,100484.06
2022-09-29T20:06:07.572Z,100489.47
2022-09-29T20:08:34.883Z,100493.94
2022-09-29T20:11:08.310Z,100501.88
2022-09-29T20:13:35.542Z,100504.63
2022-09-29T20:16:04.191Z,100506.59
2022-09-29T20:18:34.619Z,100513.69
2022-09-29T20:21:15.266Z,100520.06
2022-09-29T20:23:42.348Z,100519.38
2022-09-29T20:26:09.933Z,100515.25
2022-09-29T20:28:37.788Z,100516.22
2022-09-29T20:31:07.524Z,100516.38
2022-09-29T20:33:36.476Z,100521.78
2022-09-29T20:36:05.825Z,100522.88
2022-09-29T20:38:39.453Z,100521.34
2022-09-29T20:41:07.402Z,100530.25
2022-09-29T20:43:34.764Z,100529.56
2022-09-29T20:46:05.921Z,100535.78
2022-09-29T20:48:39.106Z,100537.72
2022-09-29T20:51:15.287Z,100540.56
2022-09-29T20:53:49.990Z,100539.81
2022-09-29T20:56:18.317Z,100535.50
2022-09-29T20:58:49.159Z,100540.97
2022-09-29T21:01:22.135Z,100548.94
2022-09-29T21:04:06.726Z,100549.09
2022-09-29T21:06:37.592Z,100552.69
2022-09-29T21:09:06.823Z,100550.25
2022-09-29T21:11:39.748Z,100560.00
2022-09-29T21:14:11.196Z,100558.44
2022-09-29T21:16:45.255Z,100555.13
2022-09-29T21:19:13.465Z,100559.59
2022-09-29T21:21:41.475Z,100566.63
2022-09-29T21:24:09.097Z,100562.50
2022-09-29T21:26:36.886Z,100563.56
2022-09-29T21:29:04.818Z,100575.84
2022-09-29T21:31:34.453Z,100575.06
2022-09-29T21:34:07.180Z,100577.75
2022-09-29T21:36:37.009Z,100589.13
2022-09-29T21:39:08.508Z,100586.59
2022-09-29T21:41:39.237Z,100583.19
2022-09-29T21:44:13.173Z,100578.03
2022-09-29T21:46:41.803Z,100580.72
2022-09-29T21:49:11.325Z,100587.84
2022-09-29T21:51:42.303Z,100591.38
2022-09-29T21:54:19.053Z,100588.91
2022-09-29T21:56:47.735Z,100590.84
2022-09-29T21:59:17.751Z,100587.47
2022-09-29T22:01:48.443Z,100586.66
2022-09-29T22:04:16.447Z,100594.63
2022-09-29T22:06:45.279Z,100589.50
2022-09-29T22:09:18.010Z,100588.59
2022-09-29T22:11:48.181Z,100597.31
2022-09-29T22:14:16.728Z,100586.03
2022-09-29T22:16:45.195Z,100590.44
2022-09-29T22:19:28.471Z,100586.19
2022-09-29T22:21:55.780Z,100588.78
2022-09-29T22:24:24.081Z,100588.88
2022-09-29T22:26:51.935Z,100584.50
2022-09-29T22:29:20.389Z,100589.81
2022-09-29T22:31:47.789Z,100580.34
2022-09-29T22:34:15.317Z,100580.50
2022-09-29T22:36:42.544Z,100596.28
2022-09-29T22:39:10.633Z,100592.13
2022-09-29T22:41:39.790Z,100604.53
2022-09-29T22:44:07.810Z,100604.66
2022-09-29T22:46:35.890Z,100598.81
2022-09-29T22:49:03.835Z,100602.41
2022-09-29T22:51:31.018Z,100601.63
2022-09-29T22:53:58.148Z,100602.69
2022-09-29T22:56:28.932Z,100605.50
2022-09-29T22:59:01.724Z,100616.06
2022-09-29T23:01:29.240Z,100606.66
2022-09-29T23:03:56.496Z,100611.19
2022-09-29T23:06:23.674Z,100610.41
2022-09-29T23:08:50.930Z,100610.47
2022-09-29T23:11:20.107Z,100610.63
2022-09-29T23:13:47.904Z,100606.38
2022-09-29T23:16:16.874Z,100609.94
2022-09-29T23:18:45.876Z,100610.94
2022-09-29T23:21:20.081Z,100614.66
2022-09-29T23:24:02.194Z,100613.94
2022-09-29T23:26:30.690Z,100619.28
2022-09-29T23:28:58.623Z,100621.09
2022-09-29T23:31:27.160Z,100614.28
2022-09-29T23:33:59.858Z,100610.94
2022-09-29T23:36:30.312Z,100622.34
2022-09-29T23:39:09.862Z,100615.63
2022-09-29T23:41:48.861Z,100624.34
2022-09-29T23:44:20.336Z,100625.28
2022-09-29T23:46:47.808Z,100619.28
2022-09-29T23:49:19.589Z,100624.53
2022-09-29T23:51:52.410Z,100618.44
2022-09-29T23:54:23.297Z,100609.78
2022-09-29T23:56:52.829Z,100613.28
2022-09-29T23:59:20.618Z,100609.84
